createdAt,value
2023-02-14T00:01:12.393Z,13.85
2023-02-14T00:03:40.578Z,13.18
2023-02-14T00:06:10.405Z,12.43
2023-02-14T00:08:37.807Z,15.00
2023-02-14T00:11:05.619Z,13.23
2023-02-14T00:13:32.990Z,13.68
2023-02-14T00:16:00.479Z,13.75
2023-02-14T00:18:47.734Z,14.30
2023-02-14T00:21:15.633Z,13.38
2023-02-14T00:23:42.887Z,14.82
2023-02-14T00:26:15.179Z,12.82
2023-02-14T00:28:43.738Z,12.88
2023-02-14T00:31:11.219Z,14.00
2023-02-14T00:33:38.545Z,14.40
2023-02-14T00:36:07.430Z,13.90
2023-02-14T00:38:34.957Z,14.88
2023-02-14T00:41:02.489Z,13.65
2023-02-14T00:43:29.797Z,13.82
2023-02-14T00:45:57.961Z,13.82
2023-02-14T00:48:25.594Z,14.35
2023-02-14T00:50:52.875Z,14.98
2023-02-14T00:53:20.088Z,13.30
2023-02-14T00:55:47.337Z,13.82
2023-02-14T00:58:15.437Z,13.10
2023-02-14T01:00:42.702Z,12.68
2023-02-14T01:03:10.059Z,13.95
2023-02-14T01:05:37.226Z,13.55
2023-02-14T01:08:05.045Z,13.85
2023-02-14T01:10:32.566Z,12.93
2023-02-14T01:13:00.054Z,14.20
2023-02-14T01:15:29.179Z,12.88
2023-02-14T01:17:56.424Z,13.73
2023-02-14T01:20:23.801Z,13.80
2023-02-14T01:22:52.329Z,13.07
2023-02-14T01:25:21.287Z,13.57
2023-02-14T01:27:48.588Z,13.68
2023-02-14T01:30:16.094Z,13.80
2023-02-14T01:32:43.480Z,13.52
2023-02-14T01:35:11.957Z,13.93
2023-02-14T01:37:39.234Z,14.25
2023-02-14T01:40:09.088Z,13.48
2023-02-14T01:42:37.266Z,12.48
2023-02-14T01:45:21.752Z,13.15
2023-02-14T01:47:54.290Z,13.88
2023-02-14T01:50:27.265Z,12.48
2023-02-14T01:53:20.110Z,13.98
2023-02-14T01:55:51.966Z,15.30
2023-02-14T01:58:24.349Z,14.05
2023-02-14T02:00:58.008Z,13.70
2023-02-14T02:03:27.718Z,16.10
2023-02-14T02:06:18.957Z,14.40
2023-02-14T02:09:13.064Z,14.43
2023-02-14T02:11:42.101Z,14.07
2023-02-14T02:14:16.010Z,14.00
2023-02-14T02:17:10.512Z,12.23
2023-02-14T02:20:02.617Z,13.73
2023-02-14T02:22:38.793Z,14.15
2023-02-14T02:25:43.196Z,13.40
2023-02-14T02:28:13.519Z,11.63
2023-02-14T02:31:18.436Z,13.30
2023-02-14T02:33:51.532Z,12.73
2023-02-14T02:36:48.029Z,12.80
2023-02-14T02:39:39.054Z,13.40
2023-02-14T02:42:25.839Z,13.63
2023-02-14T02:45:02.148Z,13.50
2023-02-14T02:47:44.521Z,12.90
2023-02-14T02:50:59.119Z,13.10
2023-02-14T02:53:43.862Z,13.23
2023-02-14T02:56:46.989Z,13.15
2023-02-14T02:59:37.918Z,13.32
2023-02-14T03:02:21.609Z,13.05
2023-02-14T03:04:55.409Z,11.60
2023-02-14T03:07:39.255Z,14.57
2023-02-14T03:10:15.517Z,13.70
2023-02-14T03:12:54.732Z,14.70
2023-02-14T03:15:25.022Z,13.65
2023-02-14T03:18:18.927Z,14.45
2023-02-14T03:21:18.730Z,12.68
2023-02-14T03:23:58.188Z,12.88
2023-02-14T03:26:35.166Z,13.68
2023-02-14T03:29:15.985Z,13.93
2023-02-14T03:32:07.074Z,13.32
2023-02-14T03:34:45.335Z,14.02
2023-02-14T03:37:31.569Z,14.07
2023-02-14T03:40:05.250Z,13.40
2023-02-14T03:42:37.239Z,13.25
2023-02-14T03:45:09.273Z,13.07
2023-02-14T03:47:38.952Z,13.13
2023-02-14T03:50:27.691Z,14.48
2023-02-14T03:52:57.478Z,12.38
2023-02-14T03:55:48.878Z,14.07
2023-02-14T03:58:26.492Z,14.55
2023-02-14T04:01:02.219Z,13.60
2023-02-14T04:03:32.390Z,12.38
2023-02-14T04:06:00.449Z,13.70
2023-02-14T04:08:29.424Z,12.95
2023-02-14T04:11:00.813Z,13.43
2023-02-14T04:13:28.717Z,14.63
2023-02-14T04:15:56.235Z,13.93
2023-02-14T04:18:41.981Z,13.52
2023-02-14T04:21:09.279Z,12.90
2023-02-14T04:23:36.509Z,15.00
2023-02-14T04:26:04.247Z,14.55
2023-02-14T04:28:32.243Z,14.05
2023-02-14T04:31:04.759Z,13.30
2023-02-14T04:33:32.944Z,14.73
2023-02-14T04:36:00.815Z,13.57
2023-02-14T04:38:28.190Z,14.18
2023-02-14T04:40:55.376Z,14.23
2023-02-14T04:43:22.593Z,12.57
2023-02-14T04:45:50.003Z,13.68
2023-02-14T04:48:17.361Z,12.55
2023-02-14T04:50:44.580Z,12.70
2023-02-14T04:53:11.845Z,13.82
2023-02-14T04:55:39.147Z,14.30
2023-02-14T04:58:06.370Z,14.43
2023-02-14T05:00:33.579Z,13.73
2023-02-14T05:03:00.785Z,15.02
2023-02-14T05:05:28.111Z,13.27
2023-02-14T05:07:55.362Z,15.13
2023-02-14T05:10:22.594Z,14.77
2023-02-14T05:12:49.836Z,14.30
2023-02-14T05:15:17.198Z,12.93
2023-02-14T05:17:44.517Z,13.65
2023-02-14T05:20:12.036Z,14.75
2023-02-14T05:22:39.256Z,14.88
2023-02-14T05:25:06.865Z,14.35
2023-02-14T05:27:34.093Z,15.40
2023-02-14T05:30:01.416Z,15.48
2023-02-14T05:32:28.765Z,14.35
2023-02-14T05:34:56.078Z,13.80
2023-02-14T05:37:23.509Z,14.07
2023-02-14T05:39:50.785Z,14.55
2023-02-14T05:42:18.051Z,14.75
2023-02-14T05:44:45.304Z,16.23
2023-02-14T05:47:13.251Z,15.23
2023-02-14T05:49:40.635Z,13.57
2023-02-14T05:52:07.887Z,15.40
2023-02-14T05:54:35.253Z,14.68
2023-02-14T05:57:02.512Z,13.60
2023-02-14T05:59:29.751Z,15.27
2023-02-14T06:01:57.011Z,14.43
2023-02-14T06:04:24.453Z,14.75
2023-02-14T06:06:51.700Z,13.05
2023-02-14T06:09:19.938Z,14.45
2023-02-14T06:11:47.220Z,15.25
2023-02-14T06:14:14.653Z,15.13
2023-02-14T06:16:41.970Z,15.40
2023-02-14T06:19:09.378Z,15.48
2023-02-14T06:21:36.910Z,15.32
2023-02-14T06:24:04.447Z,15.80
2023-02-14T06:26:31.711Z,13.77
2023-02-14T06:28:59.579Z,14.18
2023-02-14T06:31:26.953Z,13.93
2023-02-14T06:33:54.719Z,14.05
2023-02-14T06:36:22.770Z,16.83
2023-02-14T06:38:50.360Z,15.88
2023-02-14T06:41:17.668Z,14.52
2023-02-14T06:43:48.800Z,14.20
2023-02-14T06:46:17.284Z,15.13
2023-02-14T06:48:44.760Z,14.63
2023-02-14T06:51:12.747Z,15.52
2023-02-14T06:53:40.084Z,15.65
2023-02-14T06:56:07.540Z,14.35
2023-02-14T06:58:34.880Z,14.35
2023-02-14T07:01:02.334Z,15.10
2023-02-14T07:03:29.814Z,16.35
2023-02-14T07:05:58.252Z,15.13
2023-02-14T07:08:26.408Z,14.77
2023-02-14T07:10:58.379Z,16.98
2023-02-14T07:13:26.084Z,15.48
2023-02-14T07:15:53.486Z,15.98
2023-02-14T07:18:20.855Z,14.85
2023-02-14T07:20:49.622Z,15.30
2023-02-14T07:23:17.293Z,16.00
2023-02-14T07:25:44.685Z,15.18
2023-02-14T07:28:12.012Z,15.65
2023-02-14T07:30:39.325Z,16.20
2023-02-14T07:33:06.658Z,17.05
2023-02-14T07:35:35.319Z,17.77
2023-02-14T07:38:02.627Z,16.40
2023-02-14T07:40:30.159Z,14.60
2023-02-14T07:42:59.124Z,16.88
2023-02-14T07:45:26.509Z,17.17
2023-02-14T07:47:55.290Z,18.13
2023-02-14T07:50:23.436Z,15.90
2023-02-14T07:52:50.946Z,16.52
2023-02-14T07:55:19.477Z,17.48
2023-02-14T07:57:50.175Z,14.93
2023-02-14T08:00:18.279Z,15.85
2023-02-14T08:02:45.713Z,15.90
2023-02-14T08:05:13.257Z,16.85
2023-02-14T08:07:40.547Z,16.88
2023-02-14T08:10:08.166Z,17.90
2023-02-14T08:12:53.767Z,16.20
2023-02-14T08:15:39.603Z,17.70
2023-02-14T08:18:06.842Z,17.55
2023-02-14T08:20:34.065Z,17.02
2023-02-14T08:23:01.366Z,17.50
2023-02-14T08:25:28.692Z,17.98
2023-02-14T08:27:56.039Z,18.73
2023-02-14T08:30:23.865Z,19.70
2023-02-14T08:32:51.221Z,18.00
2023-02-14T08:35:18.656Z,17.63
2023-02-14T08:37:46.048Z,19.15
2023-02-14T08:40:13.496Z,18.50
2023-02-14T08:42:40.942Z,20.00
2023-02-14T08:45:08.740Z,17.48
2023-02-14T08:47:38.457Z,17.42
2023-02-14T08:50:07.843Z,19.00
2023-02-14T08:52:35.177Z,17.33
2023-02-14T08:55:03.631Z,18.58
2023-02-14T08:57:30.942Z,17.80
2023-02-14T08:59:58.221Z,18.63
2023-02-14T09:02:25.431Z,17.70
2023-02-14T09:04:52.683Z,19.15
2023-02-14T09:07:20.061Z,19.65
2023-02-14T09:09:47.344Z,20.70
2023-02-14T09:12:14.539Z,20.50
2023-02-14T09:14:46.819Z,21.65
2023-02-14T09:17:14.942Z,20.55
2023-02-14T09:19:42.450Z,21.20
2023-02-14T09:22:11.455Z,20.35
2023-02-14T09:24:40.165Z,22.90
2023-02-14T09:27:08.533Z,22.48
2023-02-14T09:29:35.830Z,23.08
2023-02-14T09:32:03.952Z,24.25
2023-02-14T09:34:33.365Z,23.77
2023-02-14T09:37:00.613Z,24.20
2023-02-14T09:39:27.843Z,24.90
2023-02-14T09:42:19.769Z,23.25
2023-02-14T09:44:56.510Z,22.67
2023-02-14T09:47:36.062Z,21.40
2023-02-14T09:50:24.102Z,22.83
2023-02-14T09:52:57.023Z,21.23
2023-02-14T09:55:30.496Z,22.65
2023-02-14T09:58:19.328Z,21.88
2023-02-14T10:00:52.279Z,35.10
2023-02-14T10:03:43.295Z,31.83
2023-02-14T10:06:42.969Z,32.03
2023-02-14T10:09:15.989Z,29.45
2023-02-14T10:11:47.653Z,26.30
2023-02-14T10:14:19.259Z,20.48
2023-02-14T10:17:07.141Z,27.30
2023-02-14T10:19:49.886Z,25.95
2023-02-14T10:22:23.919Z,25.35
2023-02-14T10:25:02.771Z,27.42
2023-02-14T10:27:36.459Z,22.85
2023-02-14T10:30:21.390Z,22.05
2023-02-14T10:32:53.331Z,20.55
2023-02-14T10:35:39.323Z,22.30
2023-02-14T10:38:32.748Z,24.38
2023-02-14T10:41:19.309Z,24.83
2023-02-14T10:44:09.004Z,18.80
2023-02-14T10:46:54.199Z,22.02
2023-02-14T10:49:36.451Z,22.90
2023-02-14T10:52:12.647Z,20.38
2023-02-14T10:54:43.860Z,20.73
2023-02-14T10:57:36.205Z,24.30
2023-02-14T11:00:07.301Z,26.42
2023-02-14T11:02:42.804Z,22.42
2023-02-14T11:05:26.104Z,18.05
2023-02-14T11:07:53.688Z,22.80
2023-02-14T11:10:30.921Z,20.70
2023-02-14T11:12:58.427Z,20.83
2023-02-14T11:15:40.452Z,23.45
2023-02-14T11:18:24.593Z,20.92
2023-02-14T11:21:04.625Z,25.02
2023-02-14T11:23:54.291Z,27.17
2023-02-14T11:26:26.833Z,25.73
2023-02-14T11:29:01.045Z,23.30
2023-02-14T11:31:34.205Z,20.30
2023-02-14T11:34:05.053Z,19.52
2023-02-14T11:36:40.236Z,22.35
2023-02-14T11:39:28.559Z,20.52
2023-02-14T11:41:59.436Z,22.75
2023-02-14T11:44:29.261Z,22.65
2023-02-14T11:46:57.927Z,19.55
2023-02-14T11:49:36.370Z,18.75
2023-02-14T11:52:15.248Z,17.17
2023-02-14T11:54:45.046Z,16.95
2023-02-14T11:57:16.535Z,14.20
2023-02-14T11:59:48.429Z,17.33
2023-02-14T12:02:31.100Z,14.60
2023-02-14T12:05:26.763Z,13.18
2023-02-14T12:08:06.013Z,12.88
2023-02-14T12:10:38.748Z,10.10
2023-02-14T12:13:09.133Z,9.38
2023-02-14T12:15:44.445Z,10.65
2023-02-14T12:18:43.090Z,10.30
2023-02-14T12:21:26.706Z,9.05
2023-02-14T12:24:03.459Z,7.28
2023-02-14T12:26:49.848Z,5.15
2023-02-14T12:29:47.253Z,5.85
2023-02-14T12:32:24.966Z,4.57
2023-02-14T12:35:00.888Z,6.45
2023-02-14T12:38:02.674Z,8.50
2023-02-14T12:41:07.982Z,6.32
2023-02-14T12:43:55.420Z,6.95
2023-02-14T12:46:34.532Z,5.22
2023-02-14T12:49:22.663Z,5.25
2023-02-14T12:52:28.288Z,6.32
2023-02-14T12:57:58.156Z,7.93
2023-02-14T13:00:40.477Z,10.00
2023-02-14T13:03:39.569Z,13.68
2023-02-14T13:06:30.886Z,13.73
2023-02-14T13:09:20.531Z,11.80
2023-02-14T13:11:56.649Z,11.50
2023-02-14T13:14:42.435Z,10.88
2023-02-14T13:17:28.445Z,12.77
2023-02-14T13:20:03.989Z,12.55
2023-02-14T13:22:34.012Z,14.52
2023-02-14T13:25:05.695Z,14.27
2023-02-14T13:27:37.492Z,14.50
2023-02-14T13:30:14.696Z,14.35
2023-02-14T13:32:47.079Z,13.02
2023-02-14T13:35:20.049Z,12.45
2023-02-14T13:37:56.194Z,10.35
2023-02-14T13:40:26.219Z,9.23
2023-02-14T13:42:58.611Z,9.55
2023-02-14T13:45:37.817Z,6.90
2023-02-14T13:48:15.550Z,7.07
2023-02-14T13:50:54.799Z,6.10
2023-02-14T13:53:34.369Z,6.97
2023-02-14T13:56:16.592Z,4.57
2023-02-14T13:58:52.477Z,4.13
2023-02-14T14:01:48.352Z,5.60
2023-02-14T14:04:36.720Z,5.93
2023-02-14T14:07:03.906Z,5.90
2023-02-14T14:09:43.247Z,5.97
2023-02-14T14:12:28.952Z,4.78
2023-02-14T14:15:07.406Z,4.47
2023-02-14T14:17:46.991Z,4.60
2023-02-14T14:20:18.776Z,5.45
2023-02-14T14:22:55.692Z,5.03
2023-02-14T14:25:34.885Z,4.85
2023-02-14T14:28:04.062Z,5.38
2023-02-14T14:30:35.658Z,5.68
2023-02-14T14:33:23.640Z,5.18
2023-02-14T14:36:07.979Z,4.75
2023-02-14T14:38:48.151Z,4.22
2023-02-14T14:41:15.593Z,5.75
2023-02-14T14:43:43.638Z,5.72
2023-02-14T14:46:15.938Z,6.10
2023-02-14T14:48:51.567Z,5.20
2023-02-14T14:51:29.403Z,4.82
2023-02-14T14:54:01.176Z,5.40
2023-02-14T14:56:36.204Z,5.40
2023-02-14T14:59:37.348Z,5.85
2023-02-14T15:02:20.663Z,4.10
2023-02-14T15:04:47.985Z,5.75
2023-02-14T15:07:33.197Z,5.90
2023-02-14T15:10:00.925Z,5.38
2023-02-14T15:12:48.474Z,8.00
2023-02-14T15:15:18.256Z,6.55
2023-02-14T15:17:46.788Z,9.27
2023-02-14T15:20:22.178Z,8.13
2023-02-14T15:22:51.420Z,5.80
2023-02-14T15:25:22.450Z,4.72
2023-02-14T15:27:50.575Z,4.20
2023-02-14T15:30:23.863Z,3.30
2023-02-14T15:32:52.224Z,3.03
2023-02-14T15:35:26.450Z,4.95
2023-02-14T15:37:54.690Z,2.92
2023-02-14T15:40:24.884Z,3.47
2023-02-14T15:42:57.485Z,3.42
2023-02-14T15:45:30.900Z,3.13
2023-02-14T15:48:02.438Z,5.30
2023-02-14T15:50:31.771Z,4.85
2023-02-14T15:53:25.250Z,3.83
2023-02-14T15:55:53.050Z,4.30
2023-02-14T15:58:29.718Z,4.97
2023-02-14T16:00:57.083Z,5.47
2023-02-14T16:03:27.365Z,8.85
2023-02-14T16:05:54.902Z,8.75
2023-02-14T16:08:30.556Z,8.60
2023-02-14T16:11:02.455Z,10.13
2023-02-14T16:13:38.233Z,10.50
2023-02-14T16:16:07.340Z,8.90
2023-02-14T16:18:35.830Z,7.70
2023-02-14T16:21:24.690Z,7.85
2023-02-14T16:24:10.880Z,5.90
2023-02-14T16:26:41.062Z,5.38
2023-02-14T16:29:10.148Z,7.82
2023-02-14T16:32:14.250Z,7.03
2023-02-14T16:34:34.879Z,7.95
2023-02-14T16:37:08.941Z,6.88
2023-02-14T16:39:38.941Z,6.25
2023-02-14T16:42:06.328Z,5.72
2023-02-14T16:44:33.563Z,5.43
2023-02-14T16:47:02.521Z,5.00
2023-02-14T16:49:30.189Z,5.25
2023-02-14T16:51:57.667Z,6.18
2023-02-14T16:54:26.809Z,5.93
2023-02-14T16:57:03.271Z,6.03
2023-02-14T16:59:30.786Z,6.93
2023-02-14T17:01:58.779Z,6.15
2023-02-14T17:04:26.163Z,6.47
2023-02-14T17:06:57.228Z,6.07
2023-02-14T17:09:29.790Z,7.22
2023-02-14T17:12:06.674Z,6.47
2023-02-14T17:14:38.433Z,8.50
2023-02-14T17:17:05.812Z,6.90
2023-02-14T17:19:33.885Z,8.38
2023-02-14T17:22:01.193Z,7.82
2023-02-14T17:24:28.490Z,7.72
2023-02-14T17:26:55.701Z,6.50
2023-02-14T17:29:22.938Z,7.50
2023-02-14T17:31:50.219Z,6.43
2023-02-14T17:34:17.513Z,7.85
2023-02-14T17:36:44.834Z,6.63
2023-02-14T17:39:12.128Z,7.45
2023-02-14T17:41:39.825Z,6.60
2023-02-14T17:44:07.388Z,7.53
2023-02-14T17:46:34.715Z,6.95
2023-02-14T17:49:02.757Z,6.93
2023-02-14T17:51:30.290Z,7.45
2023-02-14T17:53:59.032Z,7.75
2023-02-14T17:56:27.290Z,7.22
2023-02-14T17:58:55.311Z,8.13
2023-02-14T18:01:25.317Z,8.57
2023-02-14T18:03:54.113Z,8.55
2023-02-14T18:06:21.775Z,7.45
2023-02-14T18:08:51.863Z,6.85
2023-02-14T18:11:20.878Z,7.90
2023-02-14T18:13:48.576Z,7.05
2023-02-14T18:16:18.413Z,9.25
2023-02-14T18:18:46.224Z,8.70
2023-02-14T18:21:16.106Z,8.65
2023-02-14T18:23:43.694Z,7.97
2023-02-14T18:26:13.462Z,8.20
2023-02-14T18:28:40.795Z,7.28
2023-02-14T18:31:13.909Z,7.00
2023-02-14T18:33:41.583Z,6.75
2023-02-14T18:36:12.280Z,7.53
2023-02-14T18:38:43.974Z,6.47
2023-02-14T18:41:13.880Z,7.43
2023-02-14T18:43:43.599Z,6.57
2023-02-14T18:46:13.578Z,6.90
2023-02-14T18:48:40.934Z,8.07
2023-02-14T18:51:11.057Z,7.93
2023-02-14T18:53:39.277Z,7.95
2023-02-14T18:56:09.032Z,7.93
2023-02-14T18:58:36.427Z,6.80
2023-02-14T19:01:15.266Z,8.38
2023-02-14T19:03:43.217Z,8.30
2023-02-14T19:06:12.466Z,8.23
2023-02-14T19:08:41.081Z,7.65
2023-02-14T19:11:14.039Z,8.00
2023-02-14T19:13:45.935Z,8.43
2023-02-14T19:16:16.051Z,7.97
2023-02-14T19:18:43.764Z,8.20
2023-02-14T19:21:25.835Z,8.77
2023-02-14T19:23:55.020Z,8.98
2023-02-14T19:26:27.305Z,8.43
2023-02-14T19:28:56.856Z,8.82
2023-02-14T19:31:25.106Z,9.25
2023-02-14T19:33:52.728Z,9.82
2023-02-14T19:36:21.816Z,8.88
2023-02-14T19:38:52.612Z,10.23
2023-02-14T19:41:23.160Z,10.40
2023-02-14T19:43:51.451Z,10.10
2023-02-14T19:46:20.674Z,11.18
2023-02-14T19:48:48.785Z,10.60
2023-02-14T19:51:23.573Z,11.40
2023-02-14T19:53:50.980Z,10.05
2023-02-14T19:56:26.825Z,11.15
2023-02-14T19:58:56.185Z,10.88
2023-02-14T20:01:27.064Z,10.82
2023-02-14T20:03:54.454Z,10.90
2023-02-14T20:06:22.718Z,11.05
2023-02-14T20:08:50.558Z,11.38
2023-02-14T20:11:32.844Z,11.55
2023-02-14T20:14:01.043Z,11.15
2023-02-14T20:16:31.102Z,13.02
2023-02-14T20:19:00.852Z,12.65
2023-02-14T20:21:28.517Z,11.88
2023-02-14T20:24:03.419Z,11.27
2023-02-14T20:26:33.088Z,10.45
2023-02-14T20:29:06.050Z,11.35
2023-02-14T20:31:34.708Z,10.73
2023-02-14T20:34:02.442Z,12.25
2023-02-14T20:36:30.852Z,11.38
2023-02-14T20:39:00.625Z,11.85
2023-02-14T20:41:29.214Z,10.77
2023-02-14T20:44:04.160Z,11.50
2023-02-14T20:46:32.748Z,11.65
2023-02-14T20:49:00.155Z,11.10
2023-02-14T20:51:28.017Z,11.43
2023-02-14T20:53:55.955Z,12.38
2023-02-14T20:56:23.955Z,11.45
2023-02-14T20:58:51.542Z,11.63
2023-02-14T21:01:21.710Z,12.15
2023-02-14T21:03:51.004Z,11.65
2023-02-14T21:06:23.711Z,11.77
2023-02-14T21:08:51.352Z,10.35
2023-02-14T21:11:20.307Z,11.32
2023-02-14T21:13:47.658Z,11.77
2023-02-14T21:16:18.067Z,11.80
2023-02-14T21:18:49.159Z,12.15
2023-02-14T21:21:25.865Z,12.63
2023-02-14T21:23:53.785Z,12.40
2023-02-14T21:26:21.767Z,12.35
2023-02-14T21:28:49.061Z,12.48
2023-02-14T21:31:20.856Z,12.40
2023-02-14T21:33:55.949Z,12.55
2023-02-14T21:36:26.327Z,13.48
2023-02-14T21:38:58.130Z,13.15
2023-02-14T21:41:27.947Z,14.25
2023-02-14T21:43:56.558Z,14.05
2023-02-14T21:46:32.048Z,13.45
2023-02-14T21:49:19.949Z,13.63
2023-02-14T21:51:48.115Z,13.02
2023-02-14T21:54:16.103Z,14.63
2023-02-14T21:56:43.949Z,13.20
2023-02-14T21:59:12.313Z,13.48
2023-02-14T22:01:42.071Z,14.77
2023-02-14T22:04:11.628Z,14.85
2023-02-14T22:06:40.778Z,15.05
2023-02-14T22:09:09.500Z,13.52
2023-02-14T22:11:37.058Z,14.10
2023-02-14T22:14:04.611Z,13.48
2023-02-14T22:16:32.339Z,12.75
2023-02-14T22:18:59.759Z,14.85
2023-02-14T22:21:27.935Z,14.73
2023-02-14T22:23:55.828Z,13.13
2023-02-14T22:26:25.979Z,13.55
2023-02-14T22:28:59.269Z,14.63
2023-02-14T22:31:29.351Z,12.80
2023-02-14T22:33:56.746Z,12.73
2023-02-14T22:36:24.075Z,13.50
2023-02-14T22:38:51.577Z,13.43
2023-02-14T22:41:22.030Z,13.63
2023-02-14T22:43:49.717Z,13.15
2023-02-14T22:46:28.181Z,15.05
2023-02-14T22:48:57.345Z,13.23
2023-02-14T22:51:39.623Z,14.00
2023-02-14T22:54:12.532Z,14.90
2023-02-14T22:56:44.384Z,14.70
2023-02-14T22:59:17.580Z,14.95
2023-02-14T23:01:45.897Z,14.02
2023-02-14T23:04:15.016Z,14.43
2023-02-14T23:06:42.569Z,15.13
2023-02-14T23:09:11.146Z,15.15
2023-02-14T23:11:40.322Z,13.80
2023-02-14T23:14:26.883Z,15.07
2023-02-14T23:17:12.566Z,14.40
2023-02-14T23:19:58.283Z,15.43
2023-02-14T23:22:40.150Z,14.68
2023-02-14T23:25:10.169Z,14.52
2023-02-14T23:27:41.933Z,16.27
2023-02-14T23:30:12.417Z,15.15
2023-02-14T23:32:40.015Z,16.45
2023-02-14T23:35:07.959Z,16.27
2023-02-14T23:37:35.398Z,16.15
2023-02-14T23:40:04.106Z,14.80
2023-02-14T23:42:31.429Z,15.90
2023-02-14T23:45:21.451Z,15.57
2023-02-14T23:47:48.880Z,18.67
2023-02-14T23:50:16.358Z,16.73
2023-02-14T23:52:44.739Z,16.63
2023-02-14T23:55:13.013Z,16.48
2023-02-14T23:57:40.496Z,17.08
